createdAt,value
2023-01-18T00:00:21.816Z,-0.50
2023-01-18T00:02:49.304Z,-0.50
2023-01-18T00:05:16.221Z,-0.60
2023-01-18T00:07:43.029Z,-0.60
2023-01-18T00:10:10.256Z,-0.70
2023-01-18T00:12:36.956Z,-0.70
2023-01-18T00:15:04.797Z,-0.70
2023-01-18T00:17:31.532Z,-0.60
2023-01-18T00:19:58.426Z,-0.60
2023-01-18T00:22:25.182Z,-0.60
2023-01-18T00:24:51.895Z,-0.60
2023-01-18T00:27:18.674Z,-0.60
2023-01-18T00:29:45.399Z,-0.60
2023-01-18T00:32:14.257Z,-0.70
2023-01-18T00:34:41.772Z,-0.70
2023-01-18T00:37:08.571Z,-0.70
2023-01-18T00:39:35.350Z,-0.80
2023-01-18T00:42:20.602Z,-0.80
2023-01-18T00:44:47.333Z,-0.80
2023-01-18T00:47:14.139Z,-0.80
2023-01-18T00:49:40.919Z,-0.90
2023-01-18T00:52:07.703Z,-0.80
2023-01-18T00:54:34.437Z,-0.90
2023-01-18T00:57:01.207Z,-0.90
2023-01-18T00:59:27.942Z,-0.90
2023-01-18T01:01:54.809Z,-0.90
2023-01-18T01:04:40.187Z,-0.90
2023-01-18T01:07:06.915Z,-0.80
2023-01-18T01:09:33.695Z,-0.90
2023-01-18T01:12:19.179Z,-0.90
2023-01-18T01:15:06.260Z,-0.90
2023-01-18T01:17:54.809Z,-0.90
2023-01-18T01:20:41.785Z,-0.90
2023-01-18T01:23:39.204Z,-0.80
2023-01-18T01:26:08.088Z,-0.70
2023-01-18T01:28:40.512Z,-0.70
2023-01-18T01:31:10.242Z,-0.70
2023-01-18T01:33:37.817Z,-0.70
2023-01-18T01:36:10.036Z,-0.70
2023-01-18T01:38:36.741Z,-0.60
2023-01-18T01:41:09.546Z,-0.70
2023-01-18T01:43:39.058Z,-0.60
2023-01-18T01:46:36.187Z,-0.60
2023-01-18T01:49:12.509Z,-0.60
2023-01-18T01:52:03.136Z,-0.60
2023-01-18T01:54:34.271Z,-0.60
2023-01-18T01:57:07.230Z,-0.60
2023-01-18T01:59:39.334Z,-0.50
2023-01-18T02:02:06.974Z,-0.60
2023-01-18T02:04:34.813Z,-0.60
2023-01-18T02:07:01.555Z,-0.60
2023-01-18T02:09:28.302Z,-0.70
2023-01-18T02:11:55.746Z,-0.70
2023-01-18T02:14:27.611Z,-0.60
2023-01-18T02:17:06.622Z,-0.60
2023-01-18T02:19:45.557Z,-0.60
2023-01-18T02:22:44.602Z,-0.50
2023-01-18T02:25:49.624Z,-0.50
2023-01-18T02:28:21.486Z,-0.50
2023-01-18T02:30:54.373Z,-0.50
2023-01-18T02:34:04.095Z,-0.50
2023-01-18T02:36:57.197Z,-0.40
2023-01-18T02:39:40.383Z,-0.40
2023-01-18T02:42:36.597Z,-0.40
2023-01-18T02:45:27.661Z,-0.20
2023-01-18T02:47:55.437Z,-0.10
2023-01-18T02:50:27.839Z,0.00
2023-01-18T02:52:55.174Z,0.10
2023-01-18T02:55:41.486Z,0.10
2023-01-18T02:58:18.919Z,0.00
2023-01-18T03:01:10.810Z,0.00
2023-01-18T03:03:41.033Z,-0.10
2023-01-18T03:06:08.813Z,-0.10
2023-01-18T03:08:38.747Z,-0.20
2023-01-18T03:11:34.410Z,-0.30
2023-01-18T03:14:07.946Z,-0.40
2023-01-18T03:16:58.535Z,-0.40
2023-01-18T03:19:59.822Z,-0.50
2023-01-18T03:22:46.566Z,-0.60
2023-01-18T03:25:17.998Z,-0.60
2023-01-18T03:28:06.318Z,-0.70
2023-01-18T03:30:52.875Z,-0.70
2023-01-18T03:33:41.586Z,-0.80
2023-01-18T03:36:12.780Z,-0.70
2023-01-18T03:38:43.106Z,-0.80
2023-01-18T03:41:11.842Z,-0.70
2023-01-18T03:43:41.767Z,-0.70
2023-01-18T03:46:09.006Z,-0.70
2023-01-18T03:48:37.074Z,-0.70
2023-01-18T03:51:31.172Z,-0.70
2023-01-18T03:54:16.131Z,-0.70
2023-01-18T03:56:49.777Z,-0.80
2023-01-18T03:59:16.955Z,-0.80
2023-01-18T04:01:48.293Z,-0.80
2023-01-18T04:04:15.360Z,-0.90
2023-01-18T04:06:42.467Z,-0.90
2023-01-18T04:09:09.485Z,-0.80
2023-01-18T04:11:36.279Z,-0.80
2023-01-18T04:14:03.083Z,-0.70
2023-01-18T04:16:29.875Z,-0.70
2023-01-18T04:18:56.619Z,-0.70
2023-01-18T04:21:23.420Z,-0.60
2023-01-18T04:23:50.252Z,-0.50
2023-01-18T04:26:17.004Z,-0.40
2023-01-18T04:28:43.762Z,-0.40
2023-01-18T04:31:10.567Z,-0.30
2023-01-18T04:33:37.359Z,-0.30
2023-01-18T04:36:04.353Z,-0.30
2023-01-18T04:38:31.125Z,-0.30
2023-01-18T04:41:03.004Z,-0.40
2023-01-18T04:43:29.888Z,-0.50
2023-01-18T04:45:57.184Z,-0.50
2023-01-18T04:48:24.781Z,-0.50
2023-01-18T04:50:52.171Z,-0.40
2023-01-18T04:53:19.446Z,-0.40
2023-01-18T04:55:46.538Z,-0.40
2023-01-18T04:58:13.386Z,-0.30
2023-01-18T05:00:40.258Z,-0.20
2023-01-18T05:03:11.697Z,-0.10
2023-01-18T05:05:38.971Z,0.00
2023-01-18T05:08:05.725Z,0.20
2023-01-18T05:10:33.654Z,0.30
2023-01-18T05:13:00.978Z,0.40
2023-01-18T05:15:30.658Z,0.50
2023-01-18T05:17:57.379Z,0.60
2023-01-18T05:20:24.139Z,0.60
2023-01-18T05:22:50.853Z,0.60
2023-01-18T05:25:17.905Z,0.60
2023-01-18T05:27:44.698Z,0.70
2023-01-18T05:30:12.671Z,0.70
2023-01-18T05:32:39.560Z,0.70
2023-01-18T05:35:06.897Z,0.70
2023-01-18T05:37:33.641Z,0.70
2023-01-18T05:40:00.471Z,0.80
2023-01-18T05:42:27.246Z,0.70
2023-01-18T05:44:54.297Z,0.70
2023-01-18T05:47:21.045Z,0.60
2023-01-18T05:49:47.772Z,0.60
2023-01-18T05:52:14.518Z,0.50
2023-01-18T05:54:41.722Z,0.50
2023-01-18T05:57:08.745Z,0.50
2023-01-18T05:59:35.530Z,0.40
2023-01-18T06:02:03.559Z,0.40
2023-01-18T06:04:30.401Z,0.30
2023-01-18T06:06:57.227Z,0.30
2023-01-18T06:09:24.007Z,0.30
2023-01-18T06:11:50.745Z,0.30
2023-01-18T06:14:17.490Z,0.30
2023-01-18T06:16:44.319Z,0.40
2023-01-18T06:19:11.083Z,0.30
2023-01-18T06:21:37.808Z,0.30
2023-01-18T06:24:04.758Z,0.40
2023-01-18T06:26:31.517Z,0.40
2023-01-18T06:28:58.526Z,0.40
2023-01-18T06:31:25.403Z,0.40
2023-01-18T06:33:52.230Z,0.50
2023-01-18T06:36:18.983Z,0.50
2023-01-18T06:38:45.763Z,0.60
2023-01-18T06:41:12.496Z,0.60
2023-01-18T06:43:39.314Z,0.70
2023-01-18T06:46:08.323Z,0.70
2023-01-18T06:48:35.154Z,0.60
2023-01-18T06:51:04.997Z,0.60
2023-01-18T06:53:31.796Z,0.70
2023-01-18T06:56:01.875Z,0.70
2023-01-18T06:58:32.784Z,0.70
2023-01-18T07:01:00.597Z,0.60
2023-01-18T07:03:28.776Z,0.60
2023-01-18T07:06:00.388Z,0.60
2023-01-18T07:08:28.629Z,0.60
2023-01-18T07:10:55.401Z,0.60
2023-01-18T07:13:22.431Z,0.60
2023-01-18T07:15:54.847Z,0.60
2023-01-18T07:18:23.030Z,0.60
2023-01-18T07:21:01.469Z,0.70
2023-01-18T07:23:29.708Z,0.60
2023-01-18T07:26:00.843Z,0.70
2023-01-18T07:28:28.406Z,0.60
2023-01-18T07:30:55.197Z,0.70
2023-01-18T07:33:22.006Z,0.70
2023-01-18T07:35:48.727Z,0.80
2023-01-18T07:38:15.475Z,0.90
2023-01-18T07:40:42.239Z,0.90
2023-01-18T07:43:08.967Z,1.00
2023-01-18T07:45:37.563Z,1.00
2023-01-18T07:48:05.198Z,1.00
2023-01-18T07:50:35.456Z,1.00
2023-01-18T07:53:04.680Z,1.10
2023-01-18T07:55:32.878Z,1.10
2023-01-18T07:58:00.441Z,1.10
2023-01-18T08:00:27.746Z,1.10
2023-01-18T08:02:56.371Z,1.10
2023-01-18T08:05:26.858Z,1.10
2023-01-18T08:07:54.275Z,1.10
2023-01-18T08:10:21.718Z,1.20
2023-01-18T08:12:48.785Z,1.20
2023-01-18T08:15:15.646Z,1.20
2023-01-18T08:17:43.484Z,1.10
2023-01-18T08:20:10.879Z,1.20
2023-01-18T08:22:37.645Z,1.10
2023-01-18T08:25:04.823Z,1.20
2023-01-18T08:27:31.531Z,1.10
2023-01-18T08:29:58.597Z,1.10
2023-01-18T08:32:25.501Z,1.10
2023-01-18T08:34:52.244Z,1.10
2023-01-18T08:37:19.023Z,1.10
2023-01-18T08:39:45.849Z,1.10
2023-01-18T08:42:12.731Z,1.10
2023-01-18T08:44:39.585Z,1.00
2023-01-18T08:47:06.356Z,1.00
2023-01-18T08:49:33.486Z,1.10
2023-01-18T08:52:00.446Z,1.10
2023-01-18T08:54:27.400Z,1.00
2023-01-18T08:56:54.163Z,1.10
2023-01-18T08:59:21.190Z,1.10
2023-01-18T09:01:48.104Z,1.20
2023-01-18T09:04:14.871Z,1.30
2023-01-18T09:06:41.578Z,1.40
2023-01-18T09:09:08.371Z,1.50
2023-01-18T09:11:35.099Z,1.60
2023-01-18T09:14:02.348Z,1.70
2023-01-18T09:16:30.485Z,1.80
2023-01-18T09:18:58.445Z,2.00
2023-01-18T09:21:25.489Z,2.20
2023-01-18T09:23:52.261Z,2.20
2023-01-18T09:26:21.031Z,2.20
2023-01-18T09:28:51.088Z,2.20
2023-01-18T09:31:19.197Z,2.20
2023-01-18T09:33:52.913Z,2.30
2023-01-18T09:36:23.882Z,2.30
2023-01-18T09:38:50.841Z,2.30
2023-01-18T09:41:36.391Z,2.30
2023-01-18T09:44:13.107Z,2.20
2023-01-18T09:46:42.334Z,2.00
2023-01-18T09:49:35.114Z,1.90
2023-01-18T09:52:23.731Z,1.80
2023-01-18T09:55:13.397Z,1.70
2023-01-18T09:58:09.186Z,1.70
2023-01-18T10:00:41.715Z,1.70
2023-01-18T10:03:20.505Z,1.60
2023-01-18T10:06:15.571Z,1.50
2023-01-18T10:09:06.836Z,1.40
2023-01-18T10:11:47.433Z,1.30
2023-01-18T10:14:35.883Z,1.20
2023-01-18T10:17:09.084Z,1.20
2023-01-18T10:19:35.849Z,1.20
2023-01-18T10:22:13.107Z,1.20
2023-01-18T10:25:22.997Z,1.30
2023-01-18T10:27:58.994Z,1.30
2023-01-18T10:30:31.678Z,1.30
2023-01-18T10:33:03.089Z,1.30
2023-01-18T10:35:44.709Z,1.30
2023-01-18T10:38:20.099Z,1.20
2023-01-18T10:40:51.370Z,1.30
2023-01-18T10:43:23.567Z,1.40
2023-01-18T10:45:51.122Z,1.60
2023-01-18T10:48:17.891Z,1.70
2023-01-18T10:50:47.252Z,1.80
2023-01-18T10:53:31.517Z,1.90
2023-01-18T10:56:03.066Z,1.90
2023-01-18T10:58:44.384Z,2.00
2023-01-18T11:01:24.501Z,1.90
2023-01-18T11:03:53.288Z,1.80
2023-01-18T11:06:21.348Z,1.70
2023-01-18T11:08:49.739Z,1.60
2023-01-18T11:11:47.416Z,1.50
2023-01-18T11:14:34.075Z,1.50
2023-01-18T11:17:11.787Z,1.30
2023-01-18T11:19:39.315Z,1.30
2023-01-18T11:22:16.056Z,1.30
2023-01-18T11:24:43.063Z,1.30
2023-01-18T11:27:20.268Z,1.30
2023-01-18T11:29:47.420Z,1.20
2023-01-18T11:32:26.646Z,1.20
2023-01-18T11:34:55.863Z,1.30
2023-01-18T11:37:30.071Z,1.30
2023-01-18T11:39:57.195Z,1.20
2023-01-18T11:42:31.540Z,1.20
2023-01-18T11:45:21.852Z,1.10
2023-01-18T11:48:30.241Z,1.00
2023-01-18T11:51:07.305Z,1.00
2023-01-18T11:54:22.647Z,0.90
2023-01-18T11:56:51.949Z,0.80
2023-01-18T11:59:35.045Z,0.70
2023-01-18T12:02:23.251Z,0.70
2023-01-18T12:04:56.125Z,0.70
2023-01-18T12:07:40.137Z,0.70
2023-01-18T12:10:15.592Z,0.70
2023-01-18T12:12:54.300Z,0.70
2023-01-18T12:15:43.522Z,0.80
2023-01-18T12:18:33.371Z,0.90
2023-01-18T12:21:27.638Z,0.90
2023-01-18T12:24:09.525Z,1.00
2023-01-18T12:26:54.192Z,1.00
2023-01-18T12:29:38.964Z,1.10
2023-01-18T12:32:44.982Z,1.10
2023-01-18T12:35:43.285Z,1.20
2023-01-18T12:38:33.721Z,1.20
2023-01-18T12:41:00.422Z,1.20
2023-01-18T12:43:41.774Z,1.20
2023-01-18T12:46:13.996Z,1.20
2023-01-18T12:48:43.787Z,1.10
2023-01-18T12:51:18.819Z,1.10
2023-01-18T12:53:51.819Z,1.10
2023-01-18T12:56:40.311Z,1.20
2023-01-18T12:59:37.238Z,1.20
2023-01-18T13:02:24.908Z,1.10
2023-01-18T13:05:00.384Z,1.20
2023-01-18T13:07:37.675Z,1.10
2023-01-18T13:10:07.497Z,1.10
2023-01-18T13:12:34.374Z,1.10
2023-01-18T13:15:05.787Z,1.10
2023-01-18T13:17:57.767Z,1.10
2023-01-18T13:20:43.265Z,1.10
2023-01-18T13:23:25.318Z,1.10
2023-01-18T13:26:01.364Z,1.10
2023-01-18T13:28:28.678Z,1.10
2023-01-18T13:31:01.886Z,1.00
2023-01-18T13:33:37.593Z,1.00
2023-01-18T13:36:17.416Z,1.00
2023-01-18T13:38:57.875Z,1.00
2023-01-18T13:41:26.967Z,0.90
2023-01-18T13:44:26.884Z,0.90
2023-01-18T13:46:57.709Z,0.90
2023-01-18T13:49:37.691Z,0.90
2023-01-18T13:52:35.455Z,0.90
2023-01-18T13:55:23.080Z,0.90
2023-01-18T13:57:55.443Z,0.80
2023-01-18T14:00:26.296Z,0.80
2023-01-18T14:03:02.218Z,0.80
2023-01-18T14:05:42.233Z,0.80
2023-01-18T14:08:29.264Z,0.80
2023-01-18T14:11:20.738Z,0.80
2023-01-18T14:13:50.212Z,0.80
2023-01-18T14:16:23.168Z,0.80
2023-01-18T14:19:01.748Z,0.80
2023-01-18T14:21:43.770Z,0.70
2023-01-18T14:24:37.543Z,0.70
2023-01-18T14:27:06.305Z,0.70
2023-01-18T14:29:36.245Z,0.70
2023-01-18T14:32:07.869Z,0.70
2023-01-18T14:34:41.898Z,0.70
2023-01-18T14:37:26.374Z,0.70
2023-01-18T14:40:06.704Z,0.60
2023-01-18T14:42:35.191Z,0.60
2023-01-18T14:45:05.891Z,0.60
2023-01-18T14:47:34.613Z,0.60
2023-01-18T14:50:04.207Z,0.60
2023-01-18T14:52:34.018Z,0.60
2023-01-18T14:55:01.212Z,0.60
2023-01-18T14:57:28.005Z,0.50
2023-01-18T15:00:02.793Z,0.60
2023-01-18T15:02:37.669Z,0.60
2023-01-18T15:05:12.780Z,0.60
2023-01-18T15:07:40.818Z,0.60
2023-01-18T15:10:09.640Z,0.60
2023-01-18T15:12:38.711Z,0.60
2023-01-18T15:15:09.596Z,0.60
2023-01-18T15:17:37.601Z,0.50
2023-01-18T15:20:11.831Z,0.60
2023-01-18T15:22:40.849Z,0.50
2023-01-18T15:25:26.138Z,0.60
2023-01-18T15:27:54.240Z,0.60
2023-01-18T15:30:23.894Z,0.50
2023-01-18T15:32:58.074Z,0.50
2023-01-18T15:35:25.877Z,0.60
2023-01-18T15:37:52.760Z,0.50
2023-01-18T15:40:19.658Z,0.50
2023-01-18T15:43:08.813Z,0.50
2023-01-18T15:45:48.070Z,0.50
2023-01-18T15:48:21.227Z,0.50
2023-01-18T15:50:55.283Z,0.50
2023-01-18T15:53:34.439Z,0.50
2023-01-18T15:56:14.649Z,0.50
2023-01-18T15:58:55.679Z,0.40
2023-01-18T16:01:31.684Z,0.40
2023-01-18T16:04:22.697Z,0.50
2023-01-18T16:06:49.651Z,0.40
2023-01-18T16:09:18.095Z,0.40
2023-01-18T16:11:46.527Z,0.50
2023-01-18T16:14:25.863Z,0.40
2023-01-18T16:16:55.181Z,0.40
2023-01-18T16:19:29.725Z,0.40
2023-01-18T16:22:30.350Z,0.40
2023-01-18T16:25:07.312Z,0.40
2023-01-18T16:27:34.757Z,0.40
2023-01-18T16:30:17.814Z,0.40
2023-01-18T16:32:44.626Z,0.40
2023-01-18T16:35:17.952Z,0.40
2023-01-18T16:37:45.330Z,0.40
2023-01-18T16:40:20.236Z,0.40
2023-01-18T16:43:01.366Z,0.40
2023-01-18T16:45:29.858Z,0.40
2023-01-18T16:47:57.152Z,0.40
2023-01-18T16:50:24.262Z,0.30
2023-01-18T16:52:51.043Z,0.30
2023-01-18T16:55:18.319Z,0.30
2023-01-18T16:57:45.902Z,0.20
2023-01-18T17:00:22.073Z,0.30
2023-01-18T17:02:48.903Z,0.20
2023-01-18T17:05:16.247Z,0.20
2023-01-18T17:07:43.660Z,0.20
2023-01-18T17:10:40.703Z,0.20
2023-01-18T17:13:07.426Z,0.10
2023-01-18T17:15:40.832Z,0.10
2023-01-18T17:18:13.181Z,0.10
2023-01-18T17:20:40.183Z,0.10
2023-01-18T17:23:06.995Z,0.00
2023-01-18T17:25:33.965Z,0.00
2023-01-18T17:28:01.053Z,0.00
2023-01-18T17:30:28.594Z,0.00
2023-01-18T17:32:55.519Z,0.00
2023-01-18T17:35:24.224Z,0.00
2023-01-18T17:37:57.466Z,0.00
2023-01-18T17:40:39.600Z,0.00
2023-01-18T17:43:28.488Z,0.00
2023-01-18T17:46:01.916Z,0.00
2023-01-18T17:48:29.691Z,0.00
2023-01-18T17:50:56.554Z,0.00
2023-01-18T17:53:23.356Z,0.00
2023-01-18T17:55:50.418Z,0.00
2023-01-18T17:58:17.250Z,0.00
2023-01-18T18:00:44.684Z,0.00
2023-01-18T18:03:11.497Z,0.00
2023-01-18T18:05:38.386Z,0.00
2023-01-18T18:08:05.443Z,0.00
2023-01-18T18:10:32.303Z,-0.10
2023-01-18T18:12:59.727Z,0.00
2023-01-18T18:15:27.387Z,-0.10
2023-01-18T18:17:54.141Z,-0.10
2023-01-18T18:20:24.434Z,0.00
2023-01-18T18:22:51.287Z,0.00
2023-01-18T18:25:18.512Z,0.00
2023-01-18T18:27:46.889Z,0.00
2023-01-18T18:30:14.680Z,0.00
2023-01-18T18:32:41.796Z,0.00
2023-01-18T18:35:23.549Z,-0.10
2023-01-18T18:37:51.889Z,-0.10
2023-01-18T18:40:19.005Z,-0.10
2023-01-18T18:42:59.946Z,-0.10
2023-01-18T18:45:27.360Z,-0.10
2023-01-18T18:47:54.088Z,-0.10
2023-01-18T18:50:20.983Z,-0.10
2023-01-18T18:52:47.868Z,-0.10
2023-01-18T18:55:14.794Z,-0.10
2023-01-18T18:57:41.684Z,-0.10
2023-01-18T19:00:09.048Z,-0.10
2023-01-18T19:02:36.130Z,-0.10
2023-01-18T19:05:03.364Z,-0.20
2023-01-18T19:07:34.547Z,-0.10
2023-01-18T19:10:01.316Z,-0.20
2023-01-18T19:12:28.096Z,-0.20
2023-01-18T19:14:54.939Z,-0.10
2023-01-18T19:17:30.161Z,-0.10
2023-01-18T19:19:57.360Z,-0.20
2023-01-18T19:22:24.198Z,-0.20
2023-01-18T19:24:51.086Z,-0.10
2023-01-18T19:27:17.942Z,-0.20
2023-01-18T19:29:44.785Z,-0.10
2023-01-18T19:32:11.508Z,-0.10
2023-01-18T19:34:38.625Z,-0.10
2023-01-18T19:37:05.628Z,-0.20
2023-01-18T19:39:34.883Z,-0.10
2023-01-18T19:42:02.438Z,-0.20
2023-01-18T19:44:29.584Z,-0.10
2023-01-18T19:46:57.038Z,-0.10
2023-01-18T19:49:26.469Z,-0.20
2023-01-18T19:51:55.796Z,-0.10
2023-01-18T19:54:22.824Z,-0.10
2023-01-18T19:56:49.653Z,-0.10
2023-01-18T19:59:16.949Z,-0.10
2023-01-18T20:01:44.728Z,-0.10
2023-01-18T20:04:13.547Z,-0.10
2023-01-18T20:06:43.279Z,-0.10
2023-01-18T20:09:19.583Z,-0.10
2023-01-18T20:11:48.897Z,-0.10
2023-01-18T20:14:15.788Z,-0.20
2023-01-18T20:16:45.707Z,-0.20
2023-01-18T20:19:14.283Z,-0.20
2023-01-18T20:21:41.028Z,-0.20
2023-01-18T20:24:08.802Z,-0.20
2023-01-18T20:26:37.828Z,-0.20
2023-01-18T20:29:06.916Z,-0.20
2023-01-18T20:31:36.261Z,-0.20
2023-01-18T20:34:03.751Z,-0.20
2023-01-18T20:36:30.951Z,-0.20
2023-01-18T20:38:57.837Z,-0.20
2023-01-18T20:41:24.580Z,-0.20
2023-01-18T20:43:51.383Z,-0.20
2023-01-18T20:46:18.189Z,-0.30
2023-01-18T20:48:45.008Z,-0.20
2023-01-18T20:51:11.790Z,-0.30
2023-01-18T20:53:38.558Z,-0.30
2023-01-18T20:56:17.080Z,-0.30
2023-01-18T20:58:54.681Z,-0.30
2023-01-18T21:01:21.606Z,-0.30
2023-01-18T21:03:54.299Z,-0.30
2023-01-18T21:06:21.237Z,-0.30
2023-01-18T21:08:47.963Z,-0.30
2023-01-18T21:13:53.249Z,-0.30
2023-01-18T21:16:20.162Z,-0.30
2023-01-18T21:18:46.969Z,-0.40
2023-01-18T21:21:16.701Z,-0.40
2023-01-18T21:23:43.456Z,-0.30
2023-01-18T21:26:11.886Z,-0.40
2023-01-18T21:28:38.955Z,-0.40
2023-01-18T21:31:05.857Z,-0.40
2023-01-18T21:33:33.759Z,-0.40
2023-01-18T21:36:17.826Z,-0.40
2023-01-18T21:38:44.947Z,-0.40
2023-01-18T21:41:30.700Z,-0.50
2023-01-18T21:44:19.068Z,-0.40
2023-01-18T21:46:51.100Z,-0.50
2023-01-18T21:50:16.151Z,-0.50
2023-01-18T21:52:42.922Z,-0.50
2023-01-18T21:55:09.916Z,-0.50
2023-01-18T21:57:37.513Z,-0.50
2023-01-18T22:00:05.304Z,-0.50
2023-01-18T22:02:33.347Z,-0.50
2023-01-18T22:05:00.281Z,-0.50
2023-01-18T22:07:28.240Z,-0.50
2023-01-18T22:10:04.049Z,-0.50
2023-01-18T22:12:32.686Z,-0.60
2023-01-18T22:15:02.043Z,-0.60
2023-01-18T22:17:29.087Z,-0.60
2023-01-18T22:19:55.879Z,-0.60
2023-01-18T22:22:22.611Z,-0.60
2023-01-18T22:24:49.401Z,-0.60
2023-01-18T22:27:16.146Z,-0.60
2023-01-18T22:29:42.883Z,-0.60
2023-01-18T22:32:09.596Z,-0.60
2023-01-18T22:34:36.392Z,-0.60
2023-01-18T22:37:03.551Z,-0.60
2023-01-18T22:39:30.361Z,-0.50
2023-01-18T22:41:57.393Z,-0.60
2023-01-18T22:44:24.287Z,-0.60
2023-01-18T22:46:51.148Z,-0.60
2023-01-18T22:49:18.075Z,-0.70
2023-01-18T22:51:44.872Z,-0.70
2023-01-18T22:54:11.723Z,-0.70
2023-01-18T22:56:38.463Z,-0.70
2023-01-18T22:59:05.208Z,-0.70
2023-01-18T23:01:33.261Z,-0.70
2023-01-18T23:04:02.180Z,-0.70
2023-01-18T23:06:42.446Z,-0.80
2023-01-18T23:09:09.981Z,-0.80
2023-01-18T23:11:36.891Z,-0.80
2023-01-18T23:14:22.620Z,-0.80
2023-01-18T23:17:07.800Z,-0.90
2023-01-18T23:19:34.627Z,-0.90
2023-01-18T23:22:06.974Z,-0.90
2023-01-18T23:24:38.224Z,-0.90
2023-01-18T23:27:07.093Z,-0.90
2023-01-18T23:29:34.051Z,-0.90
2023-01-18T23:32:00.903Z,-0.90
2023-01-18T23:34:27.637Z,-0.90
2023-01-18T23:36:54.876Z,-0.90
2023-01-18T23:39:40.087Z,-0.90
2023-01-18T23:42:25.286Z,-0.90
2023-01-18T23:45:10.735Z,-1.00
2023-01-18T23:47:56.312Z,-0.90
2023-01-18T23:50:41.668Z,-0.90
2023-01-18T23:53:31.543Z,-0.90
2023-01-18T23:55:58.942Z,-0.90
2023-01-18T23:58:26.152Z,-0.90
